^^
Station Historical Data
Daily Summary for July 3, 2017 Units:  Both    English   Metric
« Previous Day
Next Day »
Daily Weekly Monthly Yearly Custom
  High: Low: Average:
Temperature: 72.1 °F /  22.3 °C 41.5 °F /  5.3 °C 56.5 °F /  13.6 °C
Dew Point: 31.1 °F /  -0.5 °C 25.3 °F /  -3.7 °C 27.4 °F /  -2.6 °C
Humidity: 55% 18% 35%
Wind Speed: 4.0mph /  6.4km/h - 0.4mph /  0.6km/h
Wind Gust: 10.0mph /  16.1km/h - -
Wind- - South
Pressure: 30.39 in /  1029 hPa 30.26 in /  1024.6 hPa -
Precipitation: 0.00 in /  0 mm    
Historical Graphs
 
 
Tabular Data for July 3, 2017
Time Temperature Dew Point Pressure Wind Wind Speed Wind Gust Humidity Rainfall Rate (Hourly) solar Conditions
00:05 46.9 °F /  8.3 °C 27.7 °F /  -2.4 °C 30.34in /  1027.3hPa Calm     47% 0.00in /  0mm 0.0 W/m2
00:11 46.8 °F /  8.2 °C 27.7 °F /  -2.4 °C 30.34in /  1027.3hPa Calm     47% 0.00in /  0mm 0.0 W/m2
00:17 46.4 °F /  8 °C 27.3 °F /  -2.6 °C 30.33in /  1027hPa Calm     47% 0.00in /  0mm 0.0 W/m2
00:24 46.4 °F /  8 °C 27.3 °F /  -2.6 °C 30.33in /  1027hPa Calm   1.0mph /  1.6km/h 47% 0.00in /  0mm 0.0 W/m2
00:30 46.6 °F /  8.1 °C 27.0 °F /  -2.8 °C 30.33in /  1027hPa Calm     46% 0.00in /  0mm 0.0 W/m2
00:36 46.6 °F /  8.1 °C 27.0 °F /  -2.8 °C 30.33in /  1027hPa Calm   1.0mph /  1.6km/h 46% 0.00in /  0mm 0.0 W/m2
00:42 46.6 °F /  8.1 °C 27.5 °F /  -2.5 °C 30.33in /  1027hPa Calm     47% 0.00in /  0mm 0.0 W/m2
00:48 46.2 °F /  7.9 °C 27.1 °F /  -2.7 °C 30.33in /  1027hPa Calm     47% 0.00in /  0mm 0.0 W/m2
00:54 46.2 °F /  7.9 °C 27.1 °F /  -2.7 °C 30.33in /  1027hPa Calm     47% 0.00in /  0mm 0.0 W/m2
01:00 46.2 °F /  7.9 °C 26.6 °F /  -3 °C 30.33in /  1027hPa Calm     46% 0.00in /  0mm 0.0 W/m2
01:07 46.2 °F /  7.9 °C 27.1 °F /  -2.7 °C 30.33in /  1027hPa Calm     47% 0.00in /  0mm 0.0 W/m2
01:13 46.0 °F /  7.8 °C 27.5 °F /  -2.5 °C 30.32in /  1026.6hPa Calm     48% 0.00in /  0mm 0.0 W/m2
01:19 45.9 °F /  7.7 °C 26.8 °F /  -2.9 °C 30.32in /  1026.6hPa Calm     47% 0.00in /  0mm 0.0 W/m2
01:25 45.7 °F /  7.6 °C 27.1 °F /  -2.7 °C 30.33in /  1027hPa Calm   2.0mph /  3.2km/h 48% 0.00in /  0mm 0.0 W/m2
01:31 45.7 °F /  7.6 °C 26.6 °F /  -3 °C 30.32in /  1026.6hPa Calm     47% 0.00in /  0mm 0.0 W/m2
01:37 45.3 °F /  7.4 °C 26.8 °F /  -2.9 °C 30.32in /  1026.6hPa Calm     48% 0.00in /  0mm 0.0 W/m2
01:44 45.5 °F /  7.5 °C 27.5 °F /  -2.5 °C 30.32in /  1026.6hPa Calm   1.0mph /  1.6km/h 49% 0.00in /  0mm 0.0 W/m2
01:50 45.9 °F /  7.7 °C 27.3 °F /  -2.6 °C 30.32in /  1026.6hPa Calm   1.0mph /  1.6km/h 48% 0.00in /  0mm 0.0 W/m2
01:56 46.0 °F /  7.8 °C 27.5 °F /  -2.5 °C 30.33in /  1027hPa Calm   2.0mph /  3.2km/h 48% 0.00in /  0mm 0.0 W/m2
02:02 46.2 °F /  7.9 °C 28.0 °F /  -2.2 °C 30.33in /  1027hPa Calm     49% 0.00in /  0mm 0.0 W/m2
02:08 46.4 °F /  8 °C 27.9 °F /  -2.3 °C 30.32in /  1026.6hPa Calm     48% 0.00in /  0mm 0.0 W/m2
02:14 46.6 °F /  8.1 °C 27.9 °F /  -2.3 °C 30.33in /  1027hPa Calm     48% 0.00in /  0mm 0.0 W/m2
02:20 46.6 °F /  8.1 °C 28.4 °F /  -2 °C 30.32in /  1026.6hPa Calm     49% 0.00in /  0mm 0.0 W/m2
02:26 46.2 °F /  7.9 °C 28.0 °F /  -2.2 °C 30.32in /  1026.6hPa Calm     49% 0.00in /  0mm 0.0 W/m2
02:33 46.0 °F /  7.8 °C 28.4 °F /  -2 °C 30.32in /  1026.6hPa Calm   2.0mph /  3.2km/h 50% 0.00in /  0mm 0.0 W/m2
02:39 46.0 °F /  7.8 °C 28.4 °F /  -2 °C 30.33in /  1027hPa Calm   3.0mph /  4.8km/h 50% 0.00in /  0mm 0.0 W/m2
02:45 46.0 °F /  7.8 °C 28.4 °F /  -2 °C 30.32in /  1026.6hPa Calm   1.0mph /  1.6km/h 50% 0.00in /  0mm 0.0 W/m2
02:51 46.0 °F /  7.8 °C 28.4 °F /  -2 °C 30.32in /  1026.6hPa Calm   1.0mph /  1.6km/h 50% 0.00in /  0mm 0.0 W/m2
02:57 46.0 °F /  7.8 °C 28.4 °F /  -2 °C 30.32in /  1026.6hPa Calm     50% 0.00in /  0mm 0.0 W/m2
03:03 46.2 °F /  7.9 °C 28.6 °F /  -1.9 °C 30.31in /  1026.3hPa Calm   2.0mph /  3.2km/h 50% 0.00in /  0mm 0.0 W/m2
03:09 46.2 °F /  7.9 °C 28.6 °F /  -1.9 °C 30.31in /  1026.3hPa Calm   1.0mph /  1.6km/h 50% 0.00in /  0mm 0.0 W/m2
03:16 46.2 °F /  7.9 °C 28.0 °F /  -2.2 °C 30.31in /  1026.3hPa Calm   1.0mph /  1.6km/h 49% 0.00in /  0mm 0.0 W/m2
03:22 46.2 °F /  7.9 °C 28.6 °F /  -1.9 °C 30.31in /  1026.3hPa Calm   1.0mph /  1.6km/h 50% 0.00in /  0mm 0.0 W/m2
03:28 46.4 °F /  8 °C 28.2 °F /  -2.1 °C 30.31in /  1026.3hPa Calm     49% 0.00in /  0mm 0.0 W/m2
03:34 46.4 °F /  8 °C 28.8 °F /  -1.8 °C 30.31in /  1026.3hPa Calm     50% 0.00in /  0mm 0.0 W/m2
03:40 46.4 °F /  8 °C 28.8 °F /  -1.8 °C 30.31in /  1026.3hPa Calm   1.0mph /  1.6km/h 50% 0.00in /  0mm 0.0 W/m2
03:46 46.2 °F /  7.9 °C 28.0 °F /  -2.2 °C 30.31in /  1026.3hPa Calm     49% 0.00in /  0mm 0.0 W/m2
03:53 46.2 °F /  7.9 °C 28.6 °F /  -1.9 °C 30.31in /  1026.3hPa Calm     50% 0.00in /  0mm 0.0 W/m2
03:59 45.9 °F /  7.7 °C 28.2 °F /  -2.1 °C 30.31in /  1026.3hPa Calm     50% 0.00in /  0mm 0.0 W/m2
04:05 45.3 °F /  7.4 °C 27.9 °F /  -2.3 °C 30.31in /  1026.3hPa Calm     50% 0.00in /  0mm 0.0 W/m2
04:11 45.1 °F /  7.3 °C 28.0 °F /  -2.2 °C 30.31in /  1026.3hPa Calm   1.0mph /  1.6km/h 51% 0.00in /  0mm 0.0 W/m2
04:17 45.0 °F /  7.2 °C 27.9 °F /  -2.3 °C 30.31in /  1026.3hPa Calm   3.0mph /  4.8km/h 51% 0.00in /  0mm 0.0 W/m2
04:23 44.8 °F /  7.1 °C 27.7 °F /  -2.4 °C 30.30in /  1026hPa Calm     51% 0.00in /  0mm 0.0 W/m2
04:29 44.8 °F /  7.1 °C 27.7 °F /  -2.4 °C 30.30in /  1026hPa Calm   1.0mph /  1.6km/h 51% 0.00in /  0mm 0.0 W/m2
04:36 44.6 °F /  7 °C 28.0 °F /  -2.2 °C 30.31in /  1026.3hPa Calm   2.0mph /  3.2km/h 52% 0.00in /  0mm 0.0 W/m2
04:42 44.4 °F /  6.9 °C 27.5 °F /  -2.5 °C 30.30in /  1026hPa Calm   1.0mph /  1.6km/h 51% 0.00in /  0mm 0.0 W/m2
04:48 44.4 °F /  6.9 °C 27.5 °F /  -2.5 °C 30.30in /  1026hPa Calm   2.0mph /  3.2km/h 51% 0.00in /  0mm 0.0 W/m2
04:54 44.4 °F /  6.9 °C 27.5 °F /  -2.5 °C 30.30in /  1026hPa Calm     51% 0.00in /  0mm 0.0 W/m2
05:00 44.4 °F /  6.9 °C 27.5 °F /  -2.5 °C 30.30in /  1026hPa Calm   1.0mph /  1.6km/h 51% 0.00in /  0mm 0.0 W/m2
05:06 44.4 °F /  6.9 °C 27.9 °F /  -2.3 °C 30.30in /  1026hPa SE 4.0mph /  6.4km/h 4.0mph /  6.4km/h 52% 0.00in /  0mm 0.0 W/m2
05:13 44.4 °F /  6.9 °C 27.5 °F /  -2.5 °C 30.30in /  1026hPa Calm   2.0mph /  3.2km/h 51% 0.00in /  0mm 0.0 W/m2
05:19 44.4 °F /  6.9 °C 27.0 °F /  -2.8 °C 30.30in /  1026hPa Calm   1.0mph /  1.6km/h 50% 0.00in /  0mm 0.0 W/m2
05:25 44.4 °F /  6.9 °C 27.5 °F /  -2.5 °C 30.30in /  1026hPa Calm     51% 0.00in /  0mm 0.0 W/m2
05:31 44.4 °F /  6.9 °C 27.5 °F /  -2.5 °C 30.30in /  1026hPa Calm     51% 0.00in /  0mm 0.0 W/m2
05:37 44.2 °F /  6.8 °C 27.3 °F /  -2.6 °C 30.30in /  1026hPa Calm     51% 0.00in /  0mm 0.0 W/m2
05:43 44.1 °F /  6.7 °C 27.1 °F /  -2.7 °C 30.31in /  1026.3hPa Calm     51% 0.00in /  0mm 0.0 W/m2
05:49 43.5 °F /  6.4 °C 27.1 °F /  -2.7 °C 30.31in /  1026.3hPa Calm   1.0mph /  1.6km/h 52% 0.00in /  0mm 0.0 W/m2
05:56 43.3 °F /  6.3 °C 27.0 °F /  -2.8 °C 30.31in /  1026.3hPa Calm     52% 0.00in /  0mm 0.0 W/m2
06:02 43.2 °F /  6.2 °C 27.1 °F /  -2.7 °C 30.31in /  1026.3hPa Calm     53% 0.00in /  0mm 0.0 W/m2
06:08 42.6 °F /  5.9 °C 26.6 °F /  -3 °C 30.31in /  1026.3hPa Calm     53% 0.00in /  0mm 0.0 W/m2
06:14 42.3 °F /  5.7 °C 26.8 °F /  -2.9 °C 30.32in /  1026.6hPa Calm     54% 0.00in /  0mm 0.0 W/m2
06:20 41.9 °F /  5.5 °C 27.0 °F /  -2.8 °C 30.32in /  1026.6hPa Calm     55% 0.00in /  0mm 0.0 W/m2
06:26 41.7 °F /  5.4 °C 26.8 °F /  -2.9 °C 30.32in /  1026.6hPa Calm     55% 0.00in /  0mm 0.0 W/m2
06:32 41.5 °F /  5.3 °C 26.6 °F /  -3 °C 30.32in /  1026.6hPa Calm     55% 0.00in /  0mm 0.0 W/m2
06:39 41.5 °F /  5.3 °C 26.6 °F /  -3 °C 30.33in /  1027hPa Calm     55% 0.00in /  0mm 5.0 W/m2
06:45 41.5 °F /  5.3 °C 26.6 °F /  -3 °C 30.33in /  1027hPa Calm     55% 0.00in /  0mm 9.0 W/m2
06:51 41.7 °F /  5.4 °C 26.2 °F /  -3.2 °C 30.33in /  1027hPa Calm     54% 0.00in /  0mm 11.0 W/m2
06:57 42.1 °F /  5.6 °C 26.6 °F /  -3 °C 30.34in /  1027.3hPa Calm     54% 0.00in /  0mm 12.0 W/m2
07:03 42.4 °F /  5.8 °C 26.6 °F /  -3 °C 30.34in /  1027.3hPa Calm     53% 0.00in /  0mm 16.0 W/m2
07:09 42.4 °F /  5.8 °C 26.6 °F /  -3 °C 30.35in /  1027.7hPa Calm     53% 0.00in /  0mm 18.0 W/m2
07:16 42.6 °F /  5.9 °C 26.6 °F /  -3 °C 30.35in /  1027.7hPa Calm     53% 0.00in /  0mm 19.0 W/m2
07:22 43.0 °F /  6.1 °C 26.6 °F /  -3 °C 30.36in /  1028hPa Calm     52% 0.00in /  0mm 21.0 W/m2
07:28 43.2 °F /  6.2 °C 26.8 °F /  -2.9 °C 30.36in /  1028hPa Calm     52% 0.00in /  0mm 23.0 W/m2
07:34 43.5 °F /  6.4 °C 27.1 °F /  -2.7 °C 30.36in /  1028hPa Calm     52% 0.00in /  0mm 25.0 W/m2
07:40 44.1 °F /  6.7 °C 27.5 °F /  -2.5 °C 30.36in /  1028hPa Calm     52% 0.00in /  0mm 26.0 W/m2
07:54 45.5 °F /  7.5 °C 28.4 °F /  -2 °C 30.37in /  1028.3hPa Calm     51% 0.00in /  0mm 30.0 W/m2
08:01 46.8 °F /  8.2 °C 28.6 °F /  -1.9 °C 30.37in /  1028.3hPa Calm     49% 0.00in /  0mm 162.0 W/m2
08:07 48.7 °F /  9.3 °C 28.9 °F /  -1.7 °C 30.37in /  1028.3hPa Calm     46% 0.00in /  0mm 271.0 W/m2
08:13 51.4 °F /  10.8 °C 29.1 °F /  -1.6 °C 30.37in /  1028.3hPa Calm     42% 0.00in /  0mm 292.0 W/m2
08:19 53.2 °F /  11.8 °C 29.5 °F /  -1.4 °C 30.37in /  1028.3hPa Calm     40% 0.00in /  0mm 311.0 W/m2
08:25 55.2 °F /  12.9 °C 29.5 °F /  -1.4 °C 30.37in /  1028.3hPa Calm     37% 0.00in /  0mm 334.0 W/m2
08:31 56.8 °F /  13.8 °C 28.8 °F /  -1.8 °C 30.37in /  1028.3hPa Calm     34% 0.00in /  0mm 352.0 W/m2
08:38 57.9 °F /  14.4 °C 28.2 °F /  -2.1 °C 30.37in /  1028.3hPa Calm     32% 0.00in /  0mm 373.0 W/m2
08:44 58.5 °F /  14.7 °C 28.8 °F /  -1.8 °C 30.37in /  1028.3hPa Calm     32% 0.00in /  0mm 390.0 W/m2
08:50 59.4 °F /  15.2 °C 30.2 °F /  -1 °C 30.37in /  1028.3hPa Calm     33% 0.00in /  0mm 406.0 W/m2
08:56 60.3 °F /  15.7 °C 29.5 °F /  -1.4 °C 30.37in /  1028.3hPa Calm   1.0mph /  1.6km/h 31% 0.00in /  0mm 429.0 W/m2
09:02 61.2 °F /  16.2 °C 29.5 °F /  -1.4 °C 30.37in /  1028.3hPa Calm   3.0mph /  4.8km/h 30% 0.00in /  0mm 446.0 W/m2
09:08 62.2 °F /  16.8 °C 29.7 °F /  -1.3 °C 30.37in /  1028.3hPa North 2.9mph /  4.7km/h 3.0mph /  4.8km/h 29% 0.00in /  0mm 461.0 W/m2
09:14 63.3 °F /  17.4 °C 30.6 °F /  -0.8 °C 30.37in /  1028.3hPa NE 2.9mph /  4.7km/h 3.0mph /  4.8km/h 29% 0.00in /  0mm 478.0 W/m2
09:21 64.2 °F /  17.9 °C 29.5 °F /  -1.4 °C 30.37in /  1028.3hPa Calm   5.0mph /  8km/h 27% 0.00in /  0mm 490.0 W/m2
09:27 64.8 °F /  18.2 °C 30.0 °F /  -1.1 °C 30.37in /  1028.3hPa NE 2.0mph /  3.2km/h 3.0mph /  4.8km/h 27% 0.00in /  0mm 506.0 W/m2
09:33 65.5 °F /  18.6 °C 30.6 °F /  -0.8 °C 30.37in /  1028.3hPa East 2.0mph /  3.2km/h 4.0mph /  6.4km/h 27% 0.00in /  0mm 522.0 W/m2
09:39 66.0 °F /  18.9 °C 31.1 °F /  -0.5 °C 30.37in /  1028.3hPa Calm   2.0mph /  3.2km/h 27% 0.00in /  0mm 534.0 W/m2
09:45 66.6 °F /  19.2 °C 30.6 °F /  -0.8 °C 30.37in /  1028.3hPa ENE 4.0mph /  6.4km/h 4.0mph /  6.4km/h 26% 0.00in /  0mm 547.0 W/m2
09:51 67.1 °F /  19.5 °C 30.0 °F /  -1.1 °C 30.37in /  1028.3hPa Calm   1.0mph /  1.6km/h 25% 0.00in /  0mm 559.0 W/m2
09:57 67.3 °F /  19.6 °C 29.3 °F /  -1.5 °C 30.37in /  1028.3hPa NNE 4.0mph /  6.4km/h 5.0mph /  8km/h 24% 0.00in /  0mm 575.0 W/m2
10:03 67.6 °F /  19.8 °C 28.6 °F /  -1.9 °C 30.37in /  1028.3hPa Calm   2.0mph /  3.2km/h 23% 0.00in /  0mm 584.0 W/m2
10:09 68.4 °F /  20.2 °C 30.2 °F /  -1 °C 30.37in /  1028.3hPa Calm   3.0mph /  4.8km/h 24% 0.00in /  0mm 594.0 W/m2
10:16 68.7 °F /  20.4 °C 29.5 °F /  -1.4 °C 30.37in /  1028.3hPa Calm   2.0mph /  3.2km/h 23% 0.00in /  0mm 606.0 W/m2
10:22 69.1 °F /  20.6 °C 28.6 °F /  -1.9 °C 30.36in /  1028hPa Calm   2.0mph /  3.2km/h 22% 0.00in /  0mm 617.0 W/m2
10:28 69.1 °F /  20.6 °C 29.7 °F /  -1.3 °C 30.37in /  1028.3hPa WNW 0.9mph /  1.4km/h 1.0mph /  1.6km/h 23% 0.00in /  0mm 624.0 W/m2
10:34 69.1 °F /  20.6 °C 28.6 °F /  -1.9 °C 30.36in /  1028hPa Calm   3.0mph /  4.8km/h 22% 0.00in /  0mm 633.0 W/m2
10:40 68.9 °F /  20.5 °C 27.3 °F /  -2.6 °C 30.36in /  1028hPa Calm   3.0mph /  4.8km/h 21% 0.00in /  0mm 642.0 W/m2
10:46 68.5 °F /  20.3 °C 28.2 °F /  -2.1 °C 30.36in /  1028hPa NW 0.9mph /  1.4km/h 4.0mph /  6.4km/h 22% 0.00in /  0mm 642.0 W/m2
10:52 68.7 °F /  20.4 °C 28.4 °F /  -2 °C 30.35in /  1027.7hPa NW 2.9mph /  4.7km/h 3.0mph /  4.8km/h 22% 0.00in /  0mm 649.0 W/m2
10:58 69.4 °F /  20.8 °C 27.9 °F /  -2.3 °C 30.35in /  1027.7hPa Calm   3.0mph /  4.8km/h 21% 0.00in /  0mm 656.0 W/m2
11:05 69.6 °F /  20.9 °C 27.9 °F /  -2.3 °C 30.35in /  1027.7hPa Calm   3.0mph /  4.8km/h 21% 0.00in /  0mm 663.0 W/m2
11:11 69.8 °F /  21 °C 27.0 °F /  -2.8 °C 30.34in /  1027.3hPa Calm   1.0mph /  1.6km/h 20% 0.00in /  0mm 659.0 W/m2
11:17 69.6 °F /  20.9 °C 27.9 °F /  -2.3 °C 30.34in /  1027.3hPa Calm   5.0mph /  8km/h 21% 0.00in /  0mm 659.0 W/m2
11:23 70.2 °F /  21.2 °C 28.4 °F /  -2 °C 30.34in /  1027.3hPa NNW 0.9mph /  1.4km/h 3.0mph /  4.8km/h 21% 0.00in /  0mm 675.0 W/m2
11:29 70.5 °F /  21.4 °C 28.8 °F /  -1.8 °C 30.34in /  1027.3hPa West 2.0mph /  3.2km/h 5.0mph /  8km/h 21% 0.00in /  0mm 668.0 W/m2
11:35 70.9 °F /  21.6 °C 27.9 °F /  -2.3 °C 30.34in /  1027.3hPa East 0.9mph /  1.4km/h 2.0mph /  3.2km/h 20% 0.00in /  0mm 670.0 W/m2
11:41 70.9 °F /  21.6 °C 27.9 °F /  -2.3 °C 30.33in /  1027hPa SSW 0.9mph /  1.4km/h 4.0mph /  6.4km/h 20% 0.00in /  0mm 680.0 W/m2
11:47 71.1 °F /  21.7 °C 26.8 °F /  -2.9 °C 30.33in /  1027hPa NNE 2.0mph /  3.2km/h 3.0mph /  4.8km/h 19% 0.00in /  0mm 677.0 W/m2
11:53 71.2 °F /  21.8 °C 28.0 °F /  -2.2 °C 30.33in /  1027hPa NNW 0.9mph /  1.4km/h 4.0mph /  6.4km/h 20% 0.00in /  0mm 673.0 W/m2
11:59 71.1 °F /  21.7 °C 26.8 °F /  -2.9 °C 30.32in /  1026.6hPa Calm   5.0mph /  8km/h 19% 0.00in /  0mm 687.0 W/m2
12:06 71.2 °F /  21.8 °C 26.8 °F /  -2.9 °C 30.32in /  1026.6hPa Calm   8.0mph /  12.9km/h 19% 0.00in /  0mm 673.0 W/m2
12:12 71.2 °F /  21.8 °C 26.8 °F /  -2.9 °C 30.32in /  1026.6hPa Calm   2.0mph /  3.2km/h 19% 0.00in /  0mm 675.0 W/m2
12:18 71.2 °F /  21.8 °C 26.8 °F /  -2.9 °C 30.32in /  1026.6hPa Calm     19% 0.00in /  0mm 673.0 W/m2
12:24 71.4 °F /  21.9 °C 27.0 °F /  -2.8 °C 30.32in /  1026.6hPa Calm   5.0mph /  8km/h 19% 0.00in /  0mm 666.0 W/m2
12:30 71.8 °F /  22.1 °C 28.6 °F /  -1.9 °C 30.31in /  1026.3hPa WNW 0.9mph /  1.4km/h 3.0mph /  4.8km/h 20% 0.00in /  0mm 664.0 W/m2
12:36 71.8 °F /  22.1 °C 27.3 °F /  -2.6 °C 30.31in /  1026.3hPa West 0.9mph /  1.4km/h 2.0mph /  3.2km/h 19% 0.00in /  0mm 661.0 W/m2
12:42 71.4 °F /  21.9 °C 28.2 °F /  -2.1 °C 30.31in /  1026.3hPa Calm   2.0mph /  3.2km/h 20% 0.00in /  0mm 656.0 W/m2
12:48 71.4 °F /  21.9 °C 27.0 °F /  -2.8 °C 30.30in /  1026hPa Calm   2.0mph /  3.2km/h 19% 0.00in /  0mm 649.0 W/m2
12:57 71.4 °F /  21.9 °C 27.0 °F /  -2.8 °C 30.30in /  1026hPa Calm   4.0mph /  6.4km/h 19% 0.00in /  0mm 645.0 W/m2
13:03 71.2 °F /  21.8 °C 28.0 °F /  -2.2 °C 30.29in /  1025.6hPa WSW 2.0mph /  3.2km/h 4.0mph /  6.4km/h 20% 0.00in /  0mm 636.0 W/m2
13:09 71.1 °F /  21.7 °C 28.0 °F /  -2.2 °C 30.29in /  1025.6hPa Calm   1.0mph /  1.6km/h 20% 0.00in /  0mm 631.0 W/m2
13:15 71.4 °F /  21.9 °C 28.2 °F /  -2.1 °C 30.29in /  1025.6hPa NW 0.9mph /  1.4km/h 7.0mph /  11.3km/h 20% 0.00in /  0mm 622.0 W/m2
13:21 71.8 °F /  22.1 °C 27.3 °F /  -2.6 °C 30.29in /  1025.6hPa Calm   4.0mph /  6.4km/h 19% 0.00in /  0mm 612.0 W/m2
13:27 72.0 °F /  22.2 °C 27.5 °F /  -2.5 °C 30.29in /  1025.6hPa North 2.0mph /  3.2km/h 4.0mph /  6.4km/h 19% 0.00in /  0mm 605.0 W/m2
13:33 72.0 °F /  22.2 °C 27.5 °F /  -2.5 °C 30.28in /  1025.3hPa Calm   3.0mph /  4.8km/h 19% 0.00in /  0mm 592.0 W/m2
13:40 71.8 °F /  22.1 °C 26.1 °F /  -3.3 °C 30.28in /  1025.3hPa West 2.9mph /  4.7km/h 5.0mph /  8km/h 18% 0.00in /  0mm 577.0 W/m2
13:48 71.2 °F /  21.8 °C 26.8 °F /  -2.9 °C 30.28in /  1025.3hPa NNW 0.9mph /  1.4km/h 6.0mph /  9.7km/h 19% 0.00in /  0mm 561.0 W/m2
13:54 71.1 °F /  21.7 °C 26.8 °F /  -2.9 °C 30.28in /  1025.3hPa Calm     19% 0.00in /  0mm 554.0 W/m2
14:00 71.1 °F /  21.7 °C 26.8 °F /  -2.9 °C 30.28in /  1025.3hPa NNW 2.9mph /  4.7km/h 10.0mph /  16.1km/h 19% 0.00in /  0mm 543.0 W/m2
14:06 71.4 °F /  21.9 °C 27.0 °F /  -2.8 °C 30.28in /  1025.3hPa ENE 0.9mph /  1.4km/h 6.0mph /  9.7km/h 19% 0.00in /  0mm 527.0 W/m2
14:12 71.8 °F /  22.1 °C 27.3 °F /  -2.6 °C 30.28in /  1025.3hPa Calm   7.0mph /  11.3km/h 19% 0.00in /  0mm 508.0 W/m2
14:18 71.8 °F /  22.1 °C 27.3 °F /  -2.6 °C 30.27in /  1024.9hPa Calm   1.0mph /  1.6km/h 19% 0.00in /  0mm 499.0 W/m2
14:26 71.8 °F /  22.1 °C 27.3 °F /  -2.6 °C 30.27in /  1024.9hPa Calm   4.0mph /  6.4km/h 19% 0.00in /  0mm 473.0 W/m2
14:33 71.8 °F /  22.1 °C 27.3 °F /  -2.6 °C 30.27in /  1024.9hPa Calm   3.0mph /  4.8km/h 19% 0.00in /  0mm 459.0 W/m2
14:39 72.1 °F /  22.3 °C 27.7 °F /  -2.4 °C 30.27in /  1024.9hPa Calm   2.0mph /  3.2km/h 19% 0.00in /  0mm 446.0 W/m2
14:45 72.1 °F /  22.3 °C 26.2 °F /  -3.2 °C 30.26in /  1024.6hPa WSW 0.9mph /  1.4km/h 3.0mph /  4.8km/h 18% 0.00in /  0mm 427.0 W/m2
14:51 72.0 °F /  22.2 °C 27.5 °F /  -2.5 °C 30.27in /  1024.9hPa Calm   3.0mph /  4.8km/h 19% 0.00in /  0mm 415.0 W/m2
14:57 71.4 °F /  21.9 °C 27.0 °F /  -2.8 °C 30.27in /  1024.9hPa Calm   1.0mph /  1.6km/h 19% 0.00in /  0mm 394.0 W/m2
15:03 71.4 °F /  21.9 °C 27.0 °F /  -2.8 °C 30.27in /  1024.9hPa Calm     19% 0.00in /  0mm 376.0 W/m2
15:09 71.4 °F /  21.9 °C 27.0 °F /  -2.8 °C 30.27in /  1024.9hPa NNW 4.0mph /  6.4km/h 4.0mph /  6.4km/h 19% 0.00in /  0mm 355.0 W/m2
15:15 71.4 °F /  21.9 °C 27.0 °F /  -2.8 °C 30.27in /  1024.9hPa NNE 4.0mph /  6.4km/h 5.0mph /  8km/h 19% 0.00in /  0mm 336.0 W/m2
15:22 71.4 °F /  21.9 °C 27.0 °F /  -2.8 °C 30.27in /  1024.9hPa ENE 2.0mph /  3.2km/h 7.0mph /  11.3km/h 19% 0.00in /  0mm 320.0 W/m2
15:28 71.2 °F /  21.8 °C 26.8 °F /  -2.9 °C 30.27in /  1024.9hPa Calm   1.0mph /  1.6km/h 19% 0.00in /  0mm 49.0 W/m2
15:34 70.9 °F /  21.6 °C 26.6 °F /  -3 °C 30.27in /  1024.9hPa NNW 0.9mph /  1.4km/h 2.0mph /  3.2km/h 19% 0.00in /  0mm 46.0 W/m2
15:40 70.7 °F /  21.5 °C 26.4 °F /  -3.1 °C 30.27in /  1024.9hPa NE 2.9mph /  4.7km/h 6.0mph /  9.7km/h 19% 0.00in /  0mm 42.0 W/m2
15:46 70.5 °F /  21.4 °C 26.2 °F /  -3.2 °C 30.28in /  1025.3hPa North 4.0mph /  6.4km/h 5.0mph /  8km/h 19% 0.00in /  0mm 40.0 W/m2
15:52 70.3 °F /  21.3 °C 26.1 °F /  -3.3 °C 30.28in /  1025.3hPa North 0.9mph /  1.4km/h 3.0mph /  4.8km/h 19% 0.00in /  0mm 39.0 W/m2
15:58 70.0 °F /  21.1 °C 27.1 °F /  -2.7 °C 30.28in /  1025.3hPa NNE 0.9mph /  1.4km/h 4.0mph /  6.4km/h 20% 0.00in /  0mm 37.0 W/m2
16:04 69.6 °F /  20.9 °C 26.8 °F /  -2.9 °C 30.28in /  1025.3hPa Calm   1.0mph /  1.6km/h 20% 0.00in /  0mm 33.0 W/m2
16:11 69.3 °F /  20.7 °C 26.4 °F /  -3.1 °C 30.28in /  1025.3hPa NNW 2.9mph /  4.7km/h 6.0mph /  9.7km/h 20% 0.00in /  0mm 28.0 W/m2
16:17 69.1 °F /  20.6 °C 27.5 °F /  -2.5 °C 30.28in /  1025.3hPa Calm   2.0mph /  3.2km/h 21% 0.00in /  0mm 26.0 W/m2
16:23 68.7 °F /  20.4 °C 27.1 °F /  -2.7 °C 30.28in /  1025.3hPa Calm   3.0mph /  4.8km/h 21% 0.00in /  0mm 25.0 W/m2
16:29 68.4 °F /  20.2 °C 27.0 °F /  -2.8 °C 30.28in /  1025.3hPa Calm   1.0mph /  1.6km/h 21% 0.00in /  0mm 23.0 W/m2
16:35 68.0 °F /  20 °C 25.3 °F /  -3.7 °C 30.29in /  1025.6hPa Calm   1.0mph /  1.6km/h 20% 0.00in /  0mm 21.0 W/m2
16:41 67.6 °F /  19.8 °C 27.5 °F /  -2.5 °C 30.29in /  1025.6hPa Calm     22% 0.00in /  0mm 19.0 W/m2
16:47 67.3 °F /  19.6 °C 26.1 °F /  -3.3 °C 30.29in /  1025.6hPa Calm   2.0mph /  3.2km/h 21% 0.00in /  0mm 18.0 W/m2
16:53 66.9 °F /  19.4 °C 26.8 °F /  -2.9 °C 30.29in /  1025.6hPa Calm   1.0mph /  1.6km/h 22% 0.00in /  0mm 16.0 W/m2
16:59 66.7 °F /  19.3 °C 26.6 °F /  -3 °C 30.29in /  1025.6hPa NE 2.0mph /  3.2km/h 4.0mph /  6.4km/h 22% 0.00in /  0mm 14.0 W/m2
17:05 66.6 °F /  19.2 °C 26.6 °F /  -3 °C 30.29in /  1025.6hPa NNE 0.9mph /  1.4km/h 3.0mph /  4.8km/h 22% 0.00in /  0mm 11.0 W/m2
17:11 66.6 °F /  19.2 °C 26.6 °F /  -3 °C 30.29in /  1025.6hPa North 0.9mph /  1.4km/h 3.0mph /  4.8km/h 22% 0.00in /  0mm 7.0 W/m2
17:18 66.4 °F /  19.1 °C 26.4 °F /  -3.1 °C 30.30in /  1026hPa Calm   3.0mph /  4.8km/h 22% 0.00in /  0mm 5.0 W/m2
17:24 66.0 °F /  18.9 °C 27.1 °F /  -2.7 °C 30.30in /  1026hPa Calm     23% 0.00in /  0mm 0.0 W/m2
17:30 65.5 °F /  18.6 °C 27.7 °F /  -2.4 °C 30.30in /  1026hPa Calm     24% 0.00in /  0mm 0.0 W/m2
17:36 64.8 °F /  18.2 °C 27.1 °F /  -2.7 °C 30.31in /  1026.3hPa Calm     24% 0.00in /  0mm 0.0 W/m2
17:42 64.0 °F /  17.8 °C 27.5 °F /  -2.5 °C 30.31in /  1026.3hPa Calm     25% 0.00in /  0mm 0.0 W/m2
17:48 63.1 °F /  17.3 °C 27.7 °F /  -2.4 °C 30.31in /  1026.3hPa Calm     26% 0.00in /  0mm 0.0 W/m2
17:53 62.4 °F /  16.9 °C 28.0 °F /  -2.2 °C 30.31in /  1026.3hPa Calm     27% 0.00in /  0mm 0.0 W/m2
17:58 61.5 °F /  16.4 °C 27.1 °F /  -2.7 °C 30.32in /  1026.6hPa Calm     27% 0.00in /  0mm 0.0 W/m2
18:04 60.8 °F /  16 °C 27.5 °F /  -2.5 °C 30.32in /  1026.6hPa Calm     28% 0.00in /  0mm 0.0 W/m2
18:10 60.1 °F /  15.6 °C 26.8 °F /  -2.9 °C 30.32in /  1026.6hPa Calm   3.0mph /  4.8km/h 28% 0.00in /  0mm 0.0 W/m2
18:16 59.2 °F /  15.1 °C 27.0 °F /  -2.8 °C 30.32in /  1026.6hPa Calm     29% 0.00in /  0mm 0.0 W/m2
18:22 58.6 °F /  14.8 °C 26.4 °F /  -3.1 °C 30.33in /  1027hPa SW 0.9mph /  1.4km/h 2.0mph /  3.2km/h 29% 0.00in /  0mm 0.0 W/m2
18:28 58.3 °F /  14.6 °C 27.0 °F /  -2.8 °C 30.33in /  1027hPa Calm     30% 0.00in /  0mm 0.0 W/m2
18:34 57.9 °F /  14.4 °C 27.5 °F /  -2.5 °C 30.33in /  1027hPa Calm     31% 0.00in /  0mm 0.0 W/m2
18:40 57.6 °F /  14.2 °C 26.4 °F /  -3.1 °C 30.33in /  1027hPa Calm     30% 0.00in /  0mm 0.0 W/m2
18:46 57.4 °F /  14.1 °C 27.0 °F /  -2.8 °C 30.33in /  1027hPa Calm     31% 0.00in /  0mm 0.0 W/m2
18:53 56.8 °F /  13.8 °C 27.3 °F /  -2.6 °C 30.34in /  1027.3hPa Calm     32% 0.00in /  0mm 0.0 W/m2
18:59 56.5 °F /  13.6 °C 27.0 °F /  -2.8 °C 30.34in /  1027.3hPa Calm     32% 0.00in /  0mm 0.0 W/m2
19:05 55.9 °F /  13.3 °C 26.4 °F /  -3.1 °C 30.34in /  1027.3hPa Calm     32% 0.00in /  0mm 0.0 W/m2
19:11 55.6 °F /  13.1 °C 27.0 °F /  -2.8 °C 30.34in /  1027.3hPa Calm     33% 0.00in /  0mm 0.0 W/m2
19:17 55.2 °F /  12.9 °C 26.6 °F /  -3 °C 30.34in /  1027.3hPa Calm     33% 0.00in /  0mm 0.0 W/m2
19:23 55.0 °F /  12.8 °C 27.1 °F /  -2.7 °C 30.35in /  1027.7hPa Calm     34% 0.00in /  0mm 0.0 W/m2
19:29 54.7 °F /  12.6 °C 26.8 °F /  -2.9 °C 30.35in /  1027.7hPa Calm     34% 0.00in /  0mm 0.0 W/m2
19:35 54.5 °F /  12.5 °C 26.8 °F /  -2.9 °C 30.35in /  1027.7hPa Calm     34% 0.00in /  0mm 0.0 W/m2
19:41 54.5 °F /  12.5 °C 27.3 °F /  -2.6 °C 30.35in /  1027.7hPa Calm     35% 0.00in /  0mm 0.0 W/m2
19:47 54.3 °F /  12.4 °C 27.3 °F /  -2.6 °C 30.36in /  1028hPa Calm     35% 0.00in /  0mm 0.0 W/m2
19:53 54.0 °F /  12.2 °C 26.2 °F /  -3.2 °C 30.36in /  1028hPa East 2.0mph /  3.2km/h 2.0mph /  3.2km/h 34% 0.00in /  0mm 0.0 W/m2
19:59 53.8 °F /  12.1 °C 26.1 °F /  -3.3 °C 30.37in /  1028.3hPa Calm   2.0mph /  3.2km/h 34% 0.00in /  0mm 0.0 W/m2
20:05 53.4 °F /  11.9 °C 26.4 °F /  -3.1 °C 30.37in /  1028.3hPa Calm   1.0mph /  1.6km/h 35% 0.00in /  0mm 0.0 W/m2
20:11 53.2 °F /  11.8 °C 26.2 °F /  -3.2 °C 30.37in /  1028.3hPa Calm     35% 0.00in /  0mm 0.0 W/m2
20:17 53.2 °F /  11.8 °C 26.2 °F /  -3.2 °C 30.37in /  1028.3hPa Calm   1.0mph /  1.6km/h 35% 0.00in /  0mm 0.0 W/m2
20:23 53.1 °F /  11.7 °C 26.1 °F /  -3.3 °C 30.37in /  1028.3hPa Calm   1.0mph /  1.6km/h 35% 0.00in /  0mm 0.0 W/m2
20:29 53.1 °F /  11.7 °C 26.1 °F /  -3.3 °C 30.37in /  1028.3hPa Calm     35% 0.00in /  0mm 0.0 W/m2
20:35 52.7 °F /  11.5 °C 25.9 °F /  -3.4 °C 30.37in /  1028.3hPa ESE 0.9mph /  1.4km/h 2.0mph /  3.2km/h 35% 0.00in /  0mm 0.0 W/m2
20:41 52.5 °F /  11.4 °C 26.2 °F /  -3.2 °C 30.37in /  1028.3hPa Calm     36% 0.00in /  0mm 0.0 W/m2
20:54 52.2 °F /  11.2 °C 26.6 °F /  -3 °C 30.37in /  1028.3hPa Calm     37% 0.00in /  0mm 0.0 W/m2
20:59 51.8 °F /  11 °C 26.4 °F /  -3.1 °C 30.38in /  1028.7hPa Calm   3.0mph /  4.8km/h 37% 0.00in /  0mm 0.0 W/m2
21:05 51.6 °F /  10.9 °C 26.2 °F /  -3.2 °C 30.38in /  1028.7hPa Calm   1.0mph /  1.6km/h 37% 0.00in /  0mm 0.0 W/m2
21:11 51.6 °F /  10.9 °C 26.2 °F /  -3.2 °C 30.38in /  1028.7hPa Calm   2.0mph /  3.2km/h 37% 0.00in /  0mm 0.0 W/m2
21:17 51.6 °F /  10.9 °C 26.2 °F /  -3.2 °C 30.38in /  1028.7hPa Calm   2.0mph /  3.2km/h 37% 0.00in /  0mm 0.0 W/m2
21:23 51.6 °F /  10.9 °C 26.2 °F /  -3.2 °C 30.38in /  1028.7hPa ENE 2.9mph /  4.7km/h 6.0mph /  9.7km/h 37% 0.00in /  0mm 0.0 W/m2
21:29 51.6 °F /  10.9 °C 26.2 °F /  -3.2 °C 30.38in /  1028.7hPa Calm   1.0mph /  1.6km/h 37% 0.00in /  0mm 0.0 W/m2
21:35 51.6 °F /  10.9 °C 26.2 °F /  -3.2 °C 30.38in /  1028.7hPa Calm   1.0mph /  1.6km/h 37% 0.00in /  0mm 0.0 W/m2
21:41 51.4 °F /  10.8 °C 26.6 °F /  -3 °C 30.38in /  1028.7hPa Calm   1.0mph /  1.6km/h 38% 0.00in /  0mm 0.0 W/m2
21:47 51.4 °F /  10.8 °C 26.6 °F /  -3 °C 30.39in /  1029hPa Calm     38% 0.00in /  0mm 0.0 W/m2
21:53 51.3 °F /  10.7 °C 26.6 °F /  -3 °C 30.39in /  1029hPa Calm     38% 0.00in /  0mm 0.0 W/m2
21:59 51.1 °F /  10.6 °C 26.4 °F /  -3.1 °C 30.39in /  1029hPa Calm   1.0mph /  1.6km/h 38% 0.00in /  0mm 0.0 W/m2
22:05 50.7 °F /  10.4 °C 26.6 °F /  -3 °C 30.39in /  1029hPa Calm     39% 0.00in /  0mm 0.0 W/m2
22:11 50.5 °F /  10.3 °C 26.4 °F /  -3.1 °C 30.39in /  1029hPa Calm   1.0mph /  1.6km/h 39% 0.00in /  0mm 0.0 W/m2
22:17 50.5 °F /  10.3 °C 26.4 °F /  -3.1 °C 30.39in /  1029hPa Calm     39% 0.00in /  0mm 0.0 W/m2
22:23 50.4 °F /  10.2 °C 26.4 °F /  -3.1 °C 30.39in /  1029hPa Calm     39% 0.00in /  0mm 0.0 W/m2
22:29 50.2 °F /  10.1 °C 26.8 °F /  -2.9 °C 30.39in /  1029hPa Calm   1.0mph /  1.6km/h 40% 0.00in /  0mm 0.0 W/m2
22:35 49.8 °F /  9.9 °C 26.4 °F /  -3.1 °C 30.39in /  1029hPa Calm     40% 0.00in /  0mm 0.0 W/m2
22:41 49.8 °F /  9.9 °C 27.1 °F /  -2.7 °C 30.39in /  1029hPa Calm     41% 0.00in /  0mm 0.0 W/m2
22:47 49.5 °F /  9.7 °C 26.8 °F /  -2.9 °C 30.39in /  1029hPa Calm     41% 0.00in /  0mm 0.0 W/m2
22:53 49.3 °F /  9.6 °C 26.6 °F /  -3 °C 30.39in /  1029hPa Calm     41% 0.00in /  0mm 0.0 W/m2
22:59 49.3 °F /  9.6 °C 27.1 °F /  -2.7 °C 30.39in /  1029hPa Calm     42% 0.00in /  0mm 0.0 W/m2
23:05 49.3 °F /  9.6 °C 27.1 °F /  -2.7 °C 30.39in /  1029hPa Calm     42% 0.00in /  0mm 0.0 W/m2
23:11 48.9 °F /  9.4 °C 26.8 °F /  -2.9 °C 30.39in /  1029hPa Calm     42% 0.00in /  0mm 0.0 W/m2
23:18 48.9 °F /  9.4 °C 27.3 °F /  -2.6 °C 30.39in /  1029hPa Calm     43% 0.00in /  0mm 0.0 W/m2
23:24 48.7 °F /  9.3 °C 27.3 °F /  -2.6 °C 30.39in /  1029hPa Calm     43% 0.00in /  0mm 0.0 W/m2
23:30 48.6 °F /  9.2 °C 27.1 °F /  -2.7 °C 30.39in /  1029hPa Calm     43% 0.00in /  0mm 0.0 W/m2
23:36 48.6 °F /  9.2 °C 27.7 °F /  -2.4 °C 30.39in /  1029hPa Calm     44% 0.00in /  0mm 0.0 W/m2
23:42 48.4 °F /  9.1 °C 27.5 °F /  -2.5 °C 30.39in /  1029hPa Calm     44% 0.00in /  0mm 0.0 W/m2
23:48 48.2 °F /  9 °C 27.3 °F /  -2.6 °C 30.39in /  1029hPa Calm   1.0mph /  1.6km/h 44% 0.00in /  0mm 0.0 W/m2
23:54 48.0 °F /  8.9 °C 26.6 °F /  -3 °C 30.38in /  1028.7hPa Calm     43% 0.00in /  0mm 0.0 W/m2
Olympia, Windhoek, Namibia
Compliments of Weather Underground - 3 mb